Vail, CO

6:04 AM MDT en Octubre 31, 2014 (GMT -0600)
Blue River Valley Ranch Lakes | Change Station
CLOSE
Current Station
Estación meteorológica personal
Location: Summit County, CO
Altura: 8694 ft
Estaciones meteorológicas cercanas

Alt 8694 ft 39.65 °N, 106.07 °W | Updated 3 seconds ago

Despejado
Despejado
28.0 ° F
Sensación térmica 28 ° F
N
2.0
Viento Variable Viento desde Norte
Gusts 3.0 mph

Hoy
Alta -- | Baja -- ° F
--% Posibilidad de precipitaciones
Ayer
Alta -- | Baja -- ° F
Precip. -- pul
7:32 AM 6:04 PM
Cuarto creciente, 54% visible
Presión 30.23 pul
Visibilidad 10.0 Millas
Nubes Despejado
Vientos helados 28 ° F
Punto de rocío 13 ° F
Humedad 53%
Precipitaciones 0.00 pul
Espesor de la nieve No disponible.
UV 0 de una escala de 12
Polen 2.10 de una escala de 12
Calidad del aire No disponible.
Flu Activity No disponible.
METAR KLXV 311153Z AUTO 00000KT 10SM CLR M05/M09 A3045 RMK AO2 SLP235 T10501089 11017 21072 56005

More Conditions Fewer Conditions

Presión 30.23 pul
Visibilidad 10.0 Millas
Nubes Despejado
Vientos helados 28 ° F
Punto de rocío 13 ° F
Humedad 53%
Precipitaciones 0.00 pul
Espesor de la nieve No disponible.
UV 0 de una escala de 12
Polen 2.10 de una escala de 12
Calidad del aire No disponible.
Flu Activity No disponible.
METAR KLXV 311153Z AUTO 00000KT 10SM CLR M05/M09 A3045 RMK AO2 SLP235 T10501089 11017 21072 56005

More Conditions Fewer Conditions

10-Day Weather Forecast

Almanac

Astronomía

Oct. 31, 2014 Salida Puesta
Hora real
Crepúsculo civil
Crepúsculo náutico
Crepúsculo astronómico
Luna
Horas de luz
Horas de luz
Tomorrow will be .
, % of the Moon is Illuminated

Extremos de hoy

Máximos del estado Bajos del estado

Community

WunderPhotos

Upload Photos

1,766,589 ¡fotos cargadas!

WunderBlogs® & News

Nearby

Calidad del aire

  Calidad del aire Índice AQ Contaminante
Not available.

Grosos de nieve

Estación Profundido Altura

Actividad de terremotos

Ciudad Distance Mag. Tiempo y dato
Magnitud mínima muestra es 2,5.

Temperaturas de aguas costeras

Lugar Temperatura

Estaciones meteorológicas cercanas